Terminal Aerodrome Forecast
Issued by NWS

Home | Current Version | Previous Version | Text Only | Print | Product List | Glossary On
Versions: 1 2 3 4 5 6 7 8 9 10 11 12 13 14 15 16
613
FTAK31 PAJN 240520
TAFAWG
TAF
PAWG 240520Z 2406/2506 26009KT P6SM VCSH SCT015 BKN025 OVC035
     FM240800 VRB04KT P6SM VCFG SCT015 BKN035
     FM241400 10006KT P6SM -SN SCT020 BKN040
     FM242000 10012KT 3SM -SN BR SCT010 OVC025 WS020/18030KT
     FM250300 16007KT 5SM -SHSN SCT015 OVC025
      AMD LTD TO CLD VIS AND WIND 2406/2415=

USA.gov is the U.S. government's official web portal to all federal, state and local government web resources and services.